Mehmet Bey — 9HUD6 — position and weather

sailwx.info

Track history (hours):
 
Tides and Currents Weather Stations Pressure Air Temp Water Temp Dewpoint Dewpoint Depression Visibility Wind Speed Wind Dir Waves Ship Positions

Mehmet Bey

Last reported at 2015-Jun-26 20:17 UTC. Time now 2015-Jul-03 12:21 UTC.
Position N 37°52' E 025°53'.

Length 131 m; draft 8.5 m.

Type: Cargo ship. MMSI: 248864000.

Date/timePositionNaut miles runAvg speedWind from/ knotsBaromVisibWave heightAir tempDewpointWater temp
2015-Jun-26 20:17N 37°52' E 025°53'11 2.8
2015-Jun-26 16:10N 37°41' E 025°54'2 2.9
2015-Jun-26 15:31N 37°39' E 025°54'4 3.2
2015-Jun-26 14:24N 37°36' E 025°54'3 3.5
2015-Jun-26 13:33N 37°33' E 025°54'3 3.3
2015-Jun-26 12:33N 37°29' E 025°55'2 2.1
2015-Jun-26 11:32N 37°27' E 025°56'2 0.8
2015-Jun-26 08:32N 37°30' E 025°57'1 0.5
2015-Jun-26 07:26N 37°30' E 025°57'3 0.6
2015-Jun-26 03:14N 37°33' E 025°57'4 0.8
2015-Jun-25 22:20N 37°36' E 025°54'1 1.0
2015-Jun-25 21:34N 37°37' E 025°53'1 0.8
2015-Jun-25 20:34N 37°37' E 025°52'1 0.7
2015-Jun-25 19:34N 37°37' E 025°51'1 0.6
2015-Jun-25 18:34N 37°37' E 025°51'1 0.6
2015-Jun-25 17:33N 37°38' E 025°50'1 1.1
2015-Jun-25 16:33N 37°39' E 025°50'  
Track history (hours):
 
Tides and Currents Weather Stations Pressure Air Temp Water Temp Dewpoint Dewpoint Depression Visibility Wind Speed Wind Dir Waves Ship Positions

Mehmet Bey

Last reported at 2015-Jun-26 20:17 UTC. Time now 2015-Jul-03 12:21 UTC.
Position N 37°52' E 025°53'.

Length 131 m; draft 8.5 m.

Type: Cargo ship. MMSI: 248864000.

Date/timePositionNaut miles runAvg speedWind from/ knotsBaromVisibWave heightAir tempDewpointWater temp
2015-Jun-26 20:17N 37°52' E 025°53'11 2.8
2015-Jun-26 16:10N 37°41' E 025°54'2 2.9
2015-Jun-26 15:31N 37°39' E 025°54'4 3.2
2015-Jun-26 14:24N 37°36' E 025°54'3 3.5
2015-Jun-26 13:33N 37°33' E 025°54'3 3.3
2015-Jun-26 12:33N 37°29' E 025°55'2 2.1
2015-Jun-26 11:32N 37°27' E 025°56'2 0.8
2015-Jun-26 08:32N 37°30' E 025°57'1 0.5
2015-Jun-26 07:26N 37°30' E 025°57'3 0.6
2015-Jun-26 03:14N 37°33' E 025°57'4 0.8
2015-Jun-25 22:20N 37°36' E 025°54'1 1.0
2015-Jun-25 21:34N 37°37' E 025°53'1 0.8
2015-Jun-25 20:34N 37°37' E 025°52'1 0.7
2015-Jun-25 19:34N 37°37' E 025°51'1 0.6
2015-Jun-25 18:34N 37°37' E 025°51'1 0.6
2015-Jun-25 17:33N 37°38' E 025°50'1 1.1
2015-Jun-25 16:33N 37°39' E 025°50'  

Dump ship's entire track history